Terminal Aerodrome Forecast
Issued by NWS Paducah, KY

Home | Current Version | Previous Version | Text Only | Print | Product List | Glossary Off
Versions: 1 2 3 4 5 6 7 8 9 10 11 12 13 14 15 16 17 18 19

285
FTUS43 KPAH 271435 AAA
TAFEVV
TAF AMD
KEVV 271435Z 2715/2812 VRB03KT P6SM -SHRA SCT020 OVC150
      TEMPO 2715/2719 BKN025
     FM271900 25005KT P6SM VCSH BKN030
     FM280300 24005KT 3SM SHRA BR BKN025
     FM280900 29004KT 1SM BR BKN005=

USA.gov is the U.S. government's official web portal to all federal, state and local government web resources and services.